sensor_id;sensor_type;location;lat;lon;timestamp;pressure;altitude;pressure_sealevel;temperature;humidity
55932;BME280;41837;55.700;37.984;2023-07-30T00:00:21;99181.00;;;11.15;100.00
55932;BME280;41837;55.700;37.984;2023-07-30T00:02:47;99177.53;;;11.14;100.00
55932;BME280;41837;55.700;37.984;2023-07-30T00:05:14;99175.09;;;11.11;100.00
55932;BME280;41837;55.700;37.984;2023-07-30T00:07:40;99160.66;;;11.04;100.00
55932;BME280;41837;55.700;37.984;2023-07-30T00:10:07;99181.84;;;11.15;100.00
55932;BME280;41837;55.700;37.984;2023-07-30T00:12:33;99179.31;;;11.14;100.00
55932;BME280;41837;55.700;37.984;2023-07-30T00:15:00;99174.69;;;11.19;100.00
55932;BME280;41837;55.700;37.984;2023-07-30T00:17:31;99171.91;;;11.22;100.00
55932;BME280;41837;55.700;37.984;2023-07-30T00:19:57;99163.84;;;11.25;100.00
55932;BME280;41837;55.700;37.984;2023-07-30T00:22:24;99172.50;;;11.27;100.00
55932;BME280;41837;55.700;37.984;2023-07-30T00:24:50;99159.81;;;11.35;100.00
55932;BME280;41837;55.700;37.984;2023-07-30T00:27:17;99164.19;;;11.35;100.00
55932;BME280;41837;55.700;37.984;2023-07-30T00:29:43;99173.84;;;11.34;100.00
55932;BME280;41837;55.700;37.984;2023-07-30T00:32:10;99167.25;;;11.27;100.00
55932;BME280;41837;55.700;37.984;2023-07-30T00:34:37;99166.47;;;11.25;100.00
55932;BME280;41837;55.700;37.984;2023-07-30T00:37:04;99165.72;;;11.23;100.00
55932;BME280;41837;55.700;37.984;2023-07-30T00:39:30;99166.66;;;11.22;100.00
55932;BME280;41837;55.700;37.984;2023-07-30T00:41:56;99155.03;;;11.12;100.00
55932;BME280;41837;55.700;37.984;2023-07-30T00:44:22;99165.22;;;11.16;100.00
55932;BME280;41837;55.700;37.984;2023-07-30T00:46:49;99171.47;;;11.14;100.00
55932;BME280;41837;55.700;37.984;2023-07-30T00:49:15;99178.56;;;11.12;100.00
55932;BME280;41837;55.700;37.984;2023-07-30T00:51:42;99164.91;;;11.07;100.00
55932;BME280;41837;55.700;37.984;2023-07-30T00:54:10;99169.34;;;11.05;100.00
55932;BME280;41837;55.700;37.984;2023-07-30T00:56:37;99165.88;;;11.04;100.00
55932;BME280;41837;55.700;37.984;2023-07-30T00:59:07;99169.53;;;11.01;100.00
55932;BME280;41837;55.700;37.984;2023-07-30T01:01:33;99156.69;;;10.97;100.00
55932;BME280;41837;55.700;37.984;2023-07-30T01:04:01;99162.84;;;10.96;100.00
55932;BME280;41837;55.700;37.984;2023-07-30T01:06:28;99161.09;;;10.96;100.00
55932;BME280;41837;55.700;37.984;2023-07-30T01:08:55;99160.31;;;10.94;100.00
55932;BME280;41837;55.700;37.984;2023-07-30T01:11:21;99156.78;;;10.95;100.00
55932;BME280;41837;55.700;37.984;2023-07-30T01:13:48;99163.88;;;10.93;100.00
55932;BME280;41837;55.700;37.984;2023-07-30T01:16:15;99159.63;;;10.91;100.00
55932;BME280;41837;55.700;37.984;2023-07-30T01:18:41;99158.72;;;10.92;100.00
55932;BME280;41837;55.700;37.984;2023-07-30T01:21:07;99155.25;;;10.91;100.00
55932;BME280;41837;55.700;37.984;2023-07-30T01:23:33;99167.31;;;10.94;100.00
55932;BME280;41837;55.700;37.984;2023-07-30T01:26:24;99155.94;;;10.95;100.00
55932;BME280;41837;55.700;37.984;2023-07-30T01:28:54;99157.69;;;10.94;100.00
55932;BME280;41837;55.700;37.984;2023-07-30T01:31:24;99152.66;;;10.91;100.00
55932;BME280;41837;55.700;37.984;2023-07-30T01:33:54;99159.31;;;10.97;100.00
55932;BME280;41837;55.700;37.984;2023-07-30T01:36:22;99160.22;;;10.96;100.00
55932;BME280;41837;55.700;37.984;2023-07-30T01:38:49;99162.09;;;10.94;100.00
55932;BME280;41837;55.700;37.984;2023-07-30T01:41:16;99163.09;;;10.91;100.00
55932;BME280;41837;55.700;37.984;2023-07-30T01:43:42;99156.94;;;10.92;100.00
55932;BME280;41837;55.700;37.984;2023-07-30T01:46:09;99162.84;;;10.96;100.00
55932;BME280;41837;55.700;37.984;2023-07-30T01:48:36;99167.22;;;10.95;100.00
55932;BME280;41837;55.700;37.984;2023-07-30T01:51:02;99163.94;;;10.92;100.00
55932;BME280;41837;55.700;37.984;2023-07-30T01:53:29;99162.09;;;10.94;100.00
55932;BME280;41837;55.700;37.984;2023-07-30T01:55:55;99158.47;;;10.96;100.00
55932;BME280;41837;55.700;37.984;2023-07-30T01:58:22;99154.91;;;10.97;100.00
55932;BME280;41837;55.700;37.984;2023-07-30T02:00:48;99155.59;;;11.01;100.00
55932;BME280;41837;55.700;37.984;2023-07-30T02:03:15;99155.59;;;11.01;100.00
55932;BME280;41837;55.700;37.984;2023-07-30T02:05:41;99158.03;;;11.04;100.00
55932;BME280;41837;55.700;37.984;2023-07-30T02:08:07;99159.47;;;11.10;100.00
55932;BME280;41837;55.700;37.984;2023-07-30T02:10:33;99156.19;;;11.06;100.00
55932;BME280;41837;55.700;37.984;2023-07-30T02:13:00;99155.53;;;11.18;100.00
55932;BME280;41837;55.700;37.984;2023-07-30T02:15:27;99159.81;;;11.19;100.00
55932;BME280;41837;55.700;37.984;2023-07-30T02:17:54;99157.94;;;11.22;100.00
55932;BME280;41837;55.700;37.984;2023-07-30T02:20:20;99160.41;;;11.25;100.00
55932;BME280;41837;55.700;37.984;2023-07-30T02:22:46;99156.72;;;11.29;100.00
55932;BME280;41837;55.700;37.984;2023-07-30T02:25:14;99152.06;;;11.34;100.00
55932;BME280;41837;55.700;37.984;2023-07-30T02:27:40;99155.50;;;11.34;100.00
55932;BME280;41837;55.700;37.984;2023-07-30T02:30:07;99159.47;;;11.42;100.00
55932;BME280;41837;55.700;37.984;2023-07-30T02:32:33;99160.22;;;11.44;100.00
55932;BME280;41837;55.700;37.984;2023-07-30T02:34:59;99169.59;;;11.48;100.00
55932;BME280;41837;55.700;37.984;2023-07-30T02:37:26;99163.00;;;11.56;100.00
55932;BME280;41837;55.700;37.984;2023-07-30T02:39:52;99160.97;;;11.62;100.00
55932;BME280;41837;55.700;37.984;2023-07-30T02:42:19;99157.16;;;11.67;100.00
55932;BME280;41837;55.700;37.984;2023-07-30T02:44:45;99164.50;;;11.76;100.00
55932;BME280;41837;55.700;37.984;2023-07-30T02:47:11;99173.50;;;11.87;100.00
55932;BME280;41837;55.700;37.984;2023-07-30T02:49:38;99177.13;;;12.00;100.00
55932;BME280;41837;55.700;37.984;2023-07-30T02:52:05;99177.72;;;12.05;100.00
55932;BME280;41837;55.700;37.984;2023-07-30T02:54:32;99177.47;;;12.24;100.00
55932;BME280;41837;55.700;37.984;2023-07-30T02:56:58;99176.25;;;12.30;100.00
55932;BME280;41837;55.700;37.984;2023-07-30T02:59:25;99175.63;;;12.55;100.00
55932;BME280;41837;55.700;37.984;2023-07-30T03:01:51;99167.28;;;13.06;100.00
55932;BME280;41837;55.700;37.984;2023-07-30T03:04:18;99166.13;;;13.10;100.00
55932;BME280;41837;55.700;37.984;2023-07-30T03:06:44;99176.13;;;13.47;100.00
55932;BME280;41837;55.700;37.984;2023-07-30T03:09:10;99163.81;;;13.74;100.00
55932;BME280;41837;55.700;37.984;2023-07-30T03:11:37;99162.38;;;13.83;100.00
55932;BME280;41837;55.700;37.984;2023-07-30T03:14:03;99161.19;;;14.14;100.00
55932;BME280;41837;55.700;37.984;2023-07-30T03:16:29;99159.75;;;14.62;100.00
55932;BME280;41837;55.700;37.984;2023-07-30T03:18:55;99144.66;;;15.02;100.00
55932;BME280;41837;55.700;37.984;2023-07-30T03:21:21;99138.06;;;14.58;100.00
55932;BME280;41837;55.700;37.984;2023-07-30T03:23:48;99152.78;;;14.35;100.00
55932;BME280;41837;55.700;37.984;2023-07-30T03:26:14;99164.94;;;13.97;100.00
55932;BME280;41837;55.700;37.984;2023-07-30T03:28:40;99174.19;;;14.03;100.00
55932;BME280;41837;55.700;37.984;2023-07-30T03:31:06;99177.16;;;14.11;100.00
55932;BME280;41837;55.700;37.984;2023-07-30T03:33:33;99175.66;;;13.94;100.00
55932;BME280;41837;55.700;37.984;2023-07-30T03:36:01;99178.44;;;14.57;100.00
55932;BME280;41837;55.700;37.984;2023-07-30T03:38:27;99169.88;;;15.18;100.00
55932;BME280;41837;55.700;37.984;2023-07-30T03:40:54;99161.56;;;15.48;100.00
55932;BME280;41837;55.700;37.984;2023-07-30T03:43:21;99152.19;;;15.92;100.00
55932;BME280;41837;55.700;37.984;2023-07-30T03:45:47;99154.81;;;16.28;100.00
55932;BME280;41837;55.700;37.984;2023-07-30T03:48:14;99149.53;;;16.28;100.00
55932;BME280;41837;55.700;37.984;2023-07-30T03:50:41;99155.84;;;16.14;100.00
55932;BME280;41837;55.700;37.984;2023-07-30T03:53:07;99164.13;;;15.85;100.00
55932;BME280;41837;55.700;37.984;2023-07-30T03:55:34;99157.13;;;16.55;100.00
55932;BME280;41837;55.700;37.984;2023-07-30T03:58:01;99154.38;;;16.79;100.00
55932;BME280;41837;55.700;37.984;2023-07-30T04:00:27;99163.31;;;16.42;100.00
55932;BME280;41837;55.700;37.984;2023-07-30T04:02:55;99157.19;;;16.31;100.00
55932;BME280;41837;55.700;37.984;2023-07-30T04:05:21;99162.63;;;16.52;100.00
55932;BME280;41837;55.700;37.984;2023-07-30T04:07:48;99156.84;;;17.26;100.00
55932;BME280;41837;55.700;37.984;2023-07-30T04:10:15;99150.28;;;17.64;100.00
55932;BME280;41837;55.700;37.984;2023-07-30T04:12:41;99158.91;;;17.22;100.00
55932;BME280;41837;55.700;37.984;2023-07-30T04:15:08;99164.22;;;17.00;100.00
55932;BME280;41837;55.700;37.984;2023-07-30T04:17:36;99163.88;;;17.48;100.00
55932;BME280;41837;55.700;37.984;2023-07-30T04:20:05;99152.41;;;18.44;100.00
55932;BME280;41837;55.700;37.984;2023-07-30T04:22:31;99146.69;;;19.11;100.00
55932;BME280;41837;55.700;37.984;2023-07-30T04:24:58;99139.16;;;19.76;100.00
55932;BME280;41837;55.700;37.984;2023-07-30T04:27:24;99136.84;;;20.30;100.00
55932;BME280;41837;55.700;37.984;2023-07-30T04:29:50;99126.44;;;20.56;100.00
55932;BME280;41837;55.700;37.984;2023-07-30T04:32:16;99119.56;;;19.48;100.00
55932;BME280;41837;55.700;37.984;2023-07-30T04:34:42;99136.03;;;19.51;100.00
55932;BME280;41837;55.700;37.984;2023-07-30T04:37:09;99141.66;;;19.87;100.00
55932;BME280;41837;55.700;37.984;2023-07-30T04:39:35;99136.59;;;20.23;100.00
55932;BME280;41837;55.700;37.984;2023-07-30T04:42:03;99135.16;;;20.39;100.00
55932;BME280;41837;55.700;37.984;2023-07-30T04:44:30;99135.38;;;20.65;100.00
55932;BME280;41837;55.700;37.984;2023-07-30T04:47:01;99126.66;;;20.25;100.00
55932;BME280;41837;55.700;37.984;2023-07-30T04:49:27;99138.47;;;21.16;100.00
55932;BME280;41837;55.700;37.984;2023-07-30T04:51:54;99125.78;;;20.82;100.00
55932;BME280;41837;55.700;37.984;2023-07-30T04:54:20;99131.25;;;20.80;100.00
55932;BME280;41837;55.700;37.984;2023-07-30T04:56:46;99140.38;;;20.11;100.00
55932;BME280;41837;55.700;37.984;2023-07-30T04:59:13;99143.78;;;20.50;100.00
55932;BME280;41837;55.700;37.984;2023-07-30T05:01:39;99142.34;;;20.56;100.00
55932;BME280;41837;55.700;37.984;2023-07-30T05:04:05;99135.69;;;21.17;100.00
55932;BME280;41837;55.700;37.984;2023-07-30T05:06:31;99140.97;;;21.99;100.00
55932;BME280;41837;55.700;37.984;2023-07-30T05:08:59;99133.34;;;23.17;97.73
55932;BME280;41837;55.700;37.984;2023-07-30T05:11:25;99128.78;;;22.67;95.24
55932;BME280;41837;55.700;37.984;2023-07-30T05:13:52;99128.25;;;22.29;94.53
55932;BME280;41837;55.700;37.984;2023-07-30T05:16:18;99132.56;;;21.68;100.00
55932;BME280;41837;55.700;37.984;2023-07-30T05:18:45;99127.66;;;22.43;99.18
55932;BME280;41837;55.700;37.984;2023-07-30T05:21:11;99125.25;;;21.70;100.00
55932;BME280;41837;55.700;37.984;2023-07-30T05:23:37;99128.03;;;22.04;97.21
55932;BME280;41837;55.700;37.984;2023-07-30T05:26:09;99117.22;;;23.27;93.47
55932;BME280;41837;55.700;37.984;2023-07-30T05:28:35;99111.44;;;22.63;94.38
55932;BME280;41837;55.700;37.984;2023-07-30T05:31:01;99113.53;;;22.85;96.35
55932;BME280;41837;55.700;37.984;2023-07-30T05:33:27;99117.19;;;22.50;94.84
55932;BME280;41837;55.700;37.984;2023-07-30T05:35:54;99111.25;;;22.99;92.62
55932;BME280;41837;55.700;37.984;2023-07-30T05:38:20;99110.28;;;23.00;92.68
55932;BME280;41837;55.700;37.984;2023-07-30T05:40:47;99107.78;;;22.64;92.96
55932;BME280;41837;55.700;37.984;2023-07-30T05:43:13;99099.47;;;22.67;93.72
55932;BME280;41837;55.700;37.984;2023-07-30T05:45:40;99097.22;;;22.46;92.20
55932;BME280;41837;55.700;37.984;2023-07-30T05:48:07;99090.91;;;22.98;94.34
55932;BME280;41837;55.700;37.984;2023-07-30T05:50:34;99100.94;;;22.61;95.50
55932;BME280;41837;55.700;37.984;2023-07-30T05:53:00;99099.94;;;22.28;97.81
55932;BME280;41837;55.700;37.984;2023-07-30T05:55:26;99105.84;;;21.77;100.00
55932;BME280;41837;55.700;37.984;2023-07-30T05:57:53;99092.50;;;22.66;97.74
55932;BME280;41837;55.700;37.984;2023-07-30T06:00:19;99093.34;;;22.40;100.00
55932;BME280;41837;55.700;37.984;2023-07-30T06:02:46;99088.47;;;22.09;96.20
55932;BME280;41837;55.700;37.984;2023-07-30T06:05:11;99098.09;;;22.28;98.22
55932;BME280;41837;55.700;37.984;2023-07-30T06:07:38;99088.88;;;22.23;95.86
55932;BME280;41837;55.700;37.984;2023-07-30T06:10:05;99084.50;;;22.66;95.16
55932;BME280;41837;55.700;37.984;2023-07-30T06:12:31;99081.09;;;22.47;94.88
55932;BME280;41837;55.700;37.984;2023-07-30T06:14:58;99091.56;;;22.49;97.85
55932;BME280;41837;55.700;37.984;2023-07-30T06:17:25;99084.72;;;22.46;94.63
55932;BME280;41837;55.700;37.984;2023-07-30T06:19:52;99076.41;;;22.49;94.42
55932;BME280;41837;55.700;37.984;2023-07-30T06:22:18;99071.38;;;22.38;97.56
55932;BME280;41837;55.700;37.984;2023-07-30T06:24:44;99074.94;;;22.55;98.68
55932;BME280;41837;55.700;37.984;2023-07-30T06:27:11;99081.50;;;22.34;98.02
55932;BME280;41837;55.700;37.984;2023-07-30T06:29:38;99076.47;;;22.31;95.58
55932;BME280;41837;55.700;37.984;2023-07-30T06:32:05;99070.84;;;22.69;95.83
55932;BME280;41837;55.700;37.984;2023-07-30T06:34:32;99066.69;;;23.25;90.75
55932;BME280;41837;55.700;37.984;2023-07-30T06:36:58;99052.34;;;23.26;89.02
55932;BME280;41837;55.700;37.984;2023-07-30T06:39:25;99056.19;;;23.40;87.97
55932;BME280;41837;55.700;37.984;2023-07-30T06:41:51;99070.63;;;23.05;91.41
55932;BME280;41837;55.700;37.984;2023-07-30T06:44:18;99072.34;;;22.71;92.49
55932;BME280;41837;55.700;37.984;2023-07-30T06:46:45;99077.09;;;22.25;93.59
55932;BME280;41837;55.700;37.984;2023-07-30T06:49:11;99081.47;;;21.82;97.21
55932;BME280;41837;55.700;37.984;2023-07-30T06:51:37;99075.00;;;21.31;97.56
55932;BME280;41837;55.700;37.984;2023-07-30T06:54:04;99076.06;;;21.20;100.00
55932;BME280;41837;55.700;37.984;2023-07-30T06:56:31;99085.56;;;21.04;100.00
55932;BME280;41837;55.700;37.984;2023-07-30T06:58:57;99092.84;;;21.20;100.00
55932;BME280;41837;55.700;37.984;2023-07-30T07:01:24;99072.03;;;20.98;100.00
55932;BME280;41837;55.700;37.984;2023-07-30T07:03:51;99083.72;;;21.23;100.00
55932;BME280;41837;55.700;37.984;2023-07-30T07:06:18;99081.25;;;21.39;100.00
55932;BME280;41837;55.700;37.984;2023-07-30T07:08:44;99082.69;;;21.34;100.00
55932;BME280;41837;55.700;37.984;2023-07-30T07:11:11;99079.41;;;21.40;100.00
55932;BME280;41837;55.700;37.984;2023-07-30T07:13:37;99053.19;;;22.07;99.45
55932;BME280;41837;55.700;37.984;2023-07-30T07:16:03;99060.91;;;21.92;97.80
55932;BME280;41837;55.700;37.984;2023-07-30T07:18:29;99073.53;;;22.16;98.96
55932;BME280;41837;55.700;37.984;2023-07-30T07:20:55;99063.34;;;23.07;95.73
55932;BME280;41837;55.700;37.984;2023-07-30T07:23:22;99055.91;;;22.92;91.85
55932;BME280;41837;55.700;37.984;2023-07-30T07:25:48;99058.00;;;23.07;90.31
55932;BME280;41837;55.700;37.984;2023-07-30T07:28:15;99060.28;;;22.94;89.84
55932;BME280;41837;55.700;37.984;2023-07-30T07:30:42;99054.38;;;23.65;91.72
55932;BME280;41837;55.700;37.984;2023-07-30T07:33:10;99054.56;;;23.48;90.79
55932;BME280;41837;55.700;37.984;2023-07-30T07:35:39;99054.66;;;22.62;91.71
55932;BME280;41837;55.700;37.984;2023-07-30T07:38:06;99051.09;;;22.96;92.00
55932;BME280;41837;55.700;37.984;2023-07-30T07:40:40;99056.03;;;23.25;90.07
55932;BME280;41837;55.700;37.984;2023-07-30T07:43:07;99052.72;;;23.48;89.35
55932;BME280;41837;55.700;37.984;2023-07-30T07:45:34;99056.81;;;23.09;89.27
55932;BME280;41837;55.700;37.984;2023-07-30T07:48:01;99066.56;;;22.84;89.66
55932;BME280;41837;55.700;37.984;2023-07-30T07:50:28;99068.03;;;22.36;92.62
55932;BME280;41837;55.700;37.984;2023-07-30T07:52:54;99069.94;;;22.52;92.61
55932;BME280;41837;55.700;37.984;2023-07-30T07:55:20;99065.03;;;22.13;91.50
55932;BME280;41837;55.700;37.984;2023-07-30T07:57:47;99067.59;;;22.23;91.56
55932;BME280;41837;55.700;37.984;2023-07-30T08:00:13;99067.09;;;21.93;94.42
55932;BME280;41837;55.700;37.984;2023-07-30T08:02:41;99071.28;;;22.56;94.38
55932;BME280;41837;55.700;37.984;2023-07-30T08:05:07;99067.03;;;23.55;88.56
55932;BME280;41837;55.700;37.984;2023-07-30T08:07:34;99064.84;;;24.25;85.07
55932;BME280;41837;55.700;37.984;2023-07-30T08:10:01;99064.22;;;25.33;79.97
55932;BME280;41837;55.700;37.984;2023-07-30T08:12:31;99050.19;;;25.31;75.83
55932;BME280;41837;55.700;37.984;2023-07-30T08:14:59;99060.81;;;24.85;77.97
55932;BME280;41837;55.700;37.984;2023-07-30T08:17:25;99063.91;;;24.49;78.10
55932;BME280;41837;55.700;37.984;2023-07-30T08:19:52;99068.22;;;23.77;82.34
55932;BME280;41837;55.700;37.984;2023-07-30T08:22:19;99070.59;;;22.97;84.01
55932;BME280;41837;55.700;37.984;2023-07-30T08:24:45;99075.25;;;22.26;87.73
55932;BME280;41837;55.700;37.984;2023-07-30T08:27:12;99080.59;;;22.26;89.94
55932;BME280;41837;55.700;37.984;2023-07-30T08:29:38;99089.97;;;21.86;89.52
55932;BME280;41837;55.700;37.984;2023-07-30T08:32:04;99081.72;;;22.15;90.10
55932;BME280;41837;55.700;37.984;2023-07-30T08:34:31;99076.38;;;22.15;89.82
55932;BME280;41837;55.700;37.984;2023-07-30T08:36:57;99087.13;;;22.31;91.60
55932;BME280;41837;55.700;37.984;2023-07-30T08:39:23;99078.91;;;22.94;90.11
55932;BME280;41837;55.700;37.984;2023-07-30T08:41:50;99077.66;;;23.14;85.57
55932;BME280;41837;55.700;37.984;2023-07-30T08:44:17;99070.03;;;23.27;83.95
55932;BME280;41837;55.700;37.984;2023-07-30T08:46:43;99077.38;;;23.50;82.12
55932;BME280;41837;55.700;37.984;2023-07-30T08:49:10;99068.72;;;23.73;82.67
55932;BME280;41837;55.700;37.984;2023-07-30T08:51:37;99074.56;;;23.76;83.45
55932;BME280;41837;55.700;37.984;2023-07-30T08:54:04;99080.03;;;22.75;84.46
55932;BME280;41837;55.700;37.984;2023-07-30T08:56:32;99081.44;;;22.95;85.66
55932;BME280;41837;55.700;37.984;2023-07-30T08:59:01;99077.75;;;22.53;87.12
55932;BME280;41837;55.700;37.984;2023-07-30T09:01:30;99079.06;;;22.23;85.02
55932;BME280;41837;55.700;37.984;2023-07-30T09:04:00;99085.53;;;21.94;84.80
55932;BME280;41837;55.700;37.984;2023-07-30T09:06:26;99080.84;;;21.88;84.99
55932;BME280;41837;55.700;37.984;2023-07-30T09:08:53;99083.34;;;21.90;87.56
55932;BME280;41837;55.700;37.984;2023-07-30T09:11:20;99070.44;;;22.47;88.62
55932;BME280;41837;55.700;37.984;2023-07-30T09:13:46;99075.72;;;23.41;87.28
55932;BME280;41837;55.700;37.984;2023-07-30T09:16:14;99067.59;;;23.83;82.96
55932;BME280;41837;55.700;37.984;2023-07-30T09:18:46;99061.38;;;23.58;78.94
55932;BME280;41837;55.700;37.984;2023-07-30T09:21:13;99066.22;;;23.55;78.43
55932;BME280;41837;55.700;37.984;2023-07-30T09:23:41;99066.19;;;23.30;77.50
55932;BME280;41837;55.700;37.984;2023-07-30T09:26:08;99067.03;;;23.31;76.75
55932;BME280;41837;55.700;37.984;2023-07-30T09:28:35;99060.69;;;23.23;78.88
55932;BME280;41837;55.700;37.984;2023-07-30T09:31:06;99076.00;;;23.13;80.69
55932;BME280;41837;55.700;37.984;2023-07-30T09:33:34;99075.81;;;22.56;78.46
55932;BME280;41837;55.700;37.984;2023-07-30T09:36:02;99077.81;;;22.62;80.07
55932;BME280;41837;55.700;37.984;2023-07-30T09:38:28;99073.50;;;22.61;80.15
55932;BME280;41837;55.700;37.984;2023-07-30T09:41:02;99078.28;;;23.00;78.53
55932;BME280;41837;55.700;37.984;2023-07-30T09:43:32;99081.72;;;22.84;83.37
55932;BME280;41837;55.700;37.984;2023-07-30T09:46:04;99078.75;;;22.95;78.17
55932;BME280;41837;55.700;37.984;2023-07-30T09:48:32;99069.22;;;22.84;77.34
55932;BME280;41837;55.700;37.984;2023-07-30T09:51:00;99076.16;;;23.20;78.30
55932;BME280;41837;55.700;37.984;2023-07-30T09:53:33;99072.38;;;23.39;75.53
55932;BME280;41837;55.700;37.984;2023-07-30T09:56:03;99077.72;;;23.63;76.07
55932;BME280;41837;55.700;37.984;2023-07-30T09:58:31;99073.72;;;24.09;71.89
55932;BME280;41837;55.700;37.984;2023-07-30T10:01:01;99067.28;;;24.43;71.51
55932;BME280;41837;55.700;37.984;2023-07-30T10:03:32;99071.16;;;24.32;72.91
55932;BME280;41837;55.700;37.984;2023-07-30T10:06:03;99065.69;;;23.26;70.91
55932;BME280;41837;55.700;37.984;2023-07-30T10:08:35;99075.34;;;23.19;74.95
55932;BME280;41837;55.700;37.984;2023-07-30T10:11:07;99071.59;;;22.96;74.84
55932;BME280;41837;55.700;37.984;2023-07-30T10:13:36;99074.09;;;22.97;74.81
55932;BME280;41837;55.700;37.984;2023-07-30T10:16:09;99065.53;;;23.69;71.65
55932;BME280;41837;55.700;37.984;2023-07-30T10:18:40;99074.03;;;24.22;70.45
55932;BME280;41837;55.700;37.984;2023-07-30T10:21:11;99069.28;;;24.57;71.28
55932;BME280;41837;55.700;37.984;2023-07-30T10:24:02;99072.69;;;24.26;69.44
55932;BME280;41837;55.700;37.984;2023-07-30T10:26:35;99081.00;;;24.31;69.63
55932;BME280;41837;55.700;37.984;2023-07-30T10:31:52;99079.25;;;22.48;74.81
55932;BME280;41837;55.700;37.984;2023-07-30T10:34:19;99086.03;;;22.77;79.42
55932;BME280;41837;55.700;37.984;2023-07-30T10:36:46;99073.50;;;23.12;72.71
55932;BME280;41837;55.700;37.984;2023-07-30T10:39:26;99075.16;;;23.13;76.78
55932;BME280;41837;55.700;37.984;2023-07-30T10:41:57;99069.75;;;22.88;72.59
55932;BME280;41837;55.700;37.984;2023-07-30T10:44:27;99080.50;;;22.70;77.60
55932;BME280;41837;55.700;37.984;2023-07-30T10:46:55;99084.09;;;22.52;75.00
55932;BME280;41837;55.700;37.984;2023-07-30T10:49:22;99075.19;;;23.45;74.90
55932;BME280;41837;55.700;37.984;2023-07-30T10:51:50;99073.75;;;23.92;75.13
55932;BME280;41837;55.700;37.984;2023-07-30T10:54:17;99076.38;;;24.17;70.11
55932;BME280;41837;55.700;37.984;2023-07-30T10:56:43;99070.03;;;24.18;68.09
55932;BME280;41837;55.700;37.984;2023-07-30T10:59:11;99076.63;;;24.38;69.05
55932;BME280;41837;55.700;37.984;2023-07-30T11:01:42;99070.41;;;23.90;70.37
55932;BME280;41837;55.700;37.984;2023-07-30T11:04:17;99075.28;;;22.95;72.05
55932;BME280;41837;55.700;37.984;2023-07-30T11:06:49;99079.16;;;22.66;72.48
55932;BME280;41837;55.700;37.984;2023-07-30T11:09:20;99081.69;;;23.10;73.08
55932;BME280;41837;55.700;37.984;2023-07-30T11:11:48;99070.22;;;23.75;70.60
55932;BME280;41837;55.700;37.984;2023-07-30T11:14:15;99066.22;;;23.96;68.52
55932;BME280;41837;55.700;37.984;2023-07-30T11:16:54;99069.28;;;24.57;69.42
55932;BME280;41837;55.700;37.984;2023-07-30T11:19:21;99065.03;;;23.65;67.05
55932;BME280;41837;55.700;37.984;2023-07-30T11:21:49;99069.72;;;23.31;69.14
55932;BME280;41837;55.700;37.984;2023-07-30T11:24:16;99072.88;;;22.75;65.78
55932;BME280;41837;55.700;37.984;2023-07-30T11:26:43;99076.88;;;23.38;63.25
55932;BME280;41837;55.700;37.984;2023-07-30T11:29:16;99072.38;;;23.47;61.17
55932;BME280;41837;55.700;37.984;2023-07-30T11:31:47;99076.06;;;23.79;60.76
55932;BME280;41837;55.700;37.984;2023-07-30T11:34:14;99075.06;;;23.96;61.21
55932;BME280;41837;55.700;37.984;2023-07-30T11:36:42;99059.72;;;24.07;60.17
55932;BME280;41837;55.700;37.984;2023-07-30T11:39:10;99073.72;;;24.17;62.55
55932;BME280;41837;55.700;37.984;2023-07-30T11:41:36;99064.03;;;24.08;59.56
55932;BME280;41837;55.700;37.984;2023-07-30T11:44:03;99069.66;;;24.37;59.97
55932;BME280;41837;55.700;37.984;2023-07-30T11:46:30;99079.84;;;24.34;57.58
55932;BME280;41837;55.700;37.984;2023-07-30T11:49:13;99080.38;;;24.13;57.08
55932;BME280;41837;55.700;37.984;2023-07-30T11:51:40;99070.97;;;24.33;58.87
55932;BME280;41837;55.700;37.984;2023-07-30T11:54:17;99070.50;;;24.21;55.87
55932;BME280;41837;55.700;37.984;2023-07-30T11:56:44;99065.06;;;23.90;55.15
55932;BME280;41837;55.700;37.984;2023-07-30T11:59:11;99070.75;;;23.95;54.22
55932;BME280;41837;55.700;37.984;2023-07-30T12:01:38;99072.91;;;24.00;57.10
55932;BME280;41837;55.700;37.984;2023-07-30T12:04:05;99069.81;;;24.44;57.94
55932;BME280;41837;55.700;37.984;2023-07-30T12:09:20;99064.06;;;23.67;56.25
55932;BME280;41837;55.700;37.984;2023-07-30T12:12:01;99069.38;;;23.99;56.46
55932;BME280;41837;55.700;37.984;2023-07-30T12:17:09;99067.34;;;24.18;59.37
55932;BME280;41837;55.700;37.984;2023-07-30T12:19:36;99066.22;;;23.88;58.76
55932;BME280;41837;55.700;37.984;2023-07-30T12:22:03;99073.56;;;23.77;60.17
55932;BME280;41837;55.700;37.984;2023-07-30T12:24:30;99072.91;;;23.51;59.80
55932;BME280;41837;55.700;37.984;2023-07-30T12:26:56;99079.34;;;23.15;59.73
55932;BME280;41837;55.700;37.984;2023-07-30T12:29:24;99079.47;;;23.05;61.33
55932;BME280;41837;55.700;37.984;2023-07-30T12:31:51;99075.72;;;22.82;63.58
55932;BME280;41837;55.700;37.984;2023-07-30T12:34:23;99078.16;;;23.09;65.60
55932;BME280;41837;55.700;37.984;2023-07-30T12:36:49;99077.78;;;23.04;61.68
55932;BME280;41837;55.700;37.984;2023-07-30T12:39:15;99077.38;;;23.34;60.55
55932;BME280;41837;55.700;37.984;2023-07-30T12:41:42;99082.25;;;23.63;61.25
55932;BME280;41837;55.700;37.984;2023-07-30T12:44:08;99073.41;;;23.54;63.00
55932;BME280;41837;55.700;37.984;2023-07-30T12:46:36;99081.53;;;24.18;65.78
55932;BME280;41837;55.700;37.984;2023-07-30T12:49:02;99078.34;;;24.23;61.92
55932;BME280;41837;55.700;37.984;2023-07-30T12:51:32;99074.72;;;24.08;60.64
55932;BME280;41837;55.700;37.984;2023-07-30T12:53:58;99071.22;;;24.15;61.46